createdAt,value
2023-05-19T00:02:10.423Z,15.00
2023-05-19T00:05:15.392Z,13.50
2023-05-19T00:08:17.504Z,14.40
2023-05-19T00:11:19.581Z,14.60
2023-05-19T00:14:21.644Z,15.05
2023-05-19T00:17:23.795Z,14.23
2023-05-19T00:20:25.814Z,13.48
2023-05-19T00:23:28.283Z,13.82
2023-05-19T00:26:33.655Z,14.13
2023-05-19T00:29:35.485Z,15.15
2023-05-19T00:32:37.784Z,12.73
2023-05-19T00:35:41.037Z,14.40
2023-05-19T00:38:42.950Z,13.35
2023-05-19T00:41:48.093Z,13.32
2023-05-19T00:44:49.956Z,13.20
2023-05-19T00:47:51.984Z,11.93
2023-05-19T00:50:55.180Z,13.23
2023-05-19T00:53:57.054Z,11.18
2023-05-19T00:57:02.276Z,12.95
2023-05-19T01:00:04.723Z,12.38
2023-05-19T01:03:12.983Z,11.50
2023-05-19T01:06:15.323Z,12.93
2023-05-19T01:09:17.356Z,11.77
2023-05-19T01:12:19.283Z,12.32
2023-05-19T01:15:21.190Z,11.90
2023-05-19T01:18:43.530Z,14.53
2023-05-19T01:22:01.304Z,10.65
2023-05-19T01:25:24.400Z,11.57
2023-05-19T01:28:47.313Z,11.75
2023-05-19T01:31:50.651Z,10.73
2023-05-19T01:34:52.614Z,12.00
2023-05-19T01:37:56.414Z,10.70
2023-05-19T01:40:58.303Z,10.68
2023-05-19T01:44:00.246Z,12.25
2023-05-19T01:47:02.205Z,11.52
2023-05-19T01:50:04.728Z,9.83
2023-05-19T01:53:06.712Z,10.30
2023-05-19T01:56:08.611Z,10.00
2023-05-19T01:59:53.772Z,10.18
2023-05-19T02:03:07.886Z,9.75
2023-05-19T02:06:50.161Z,9.97
2023-05-19T02:09:54.660Z,8.25
2023-05-19T02:12:56.712Z,9.00
2023-05-19T02:16:01.268Z,9.02
2023-05-19T02:19:03.416Z,9.00
2023-05-19T02:22:05.418Z,8.90
2023-05-19T02:25:08.142Z,8.82
2023-05-19T02:28:10.093Z,8.82
2023-05-19T02:31:12.031Z,9.48
2023-05-19T02:34:13.860Z,8.07
2023-05-19T02:37:15.908Z,9.60
2023-05-19T02:40:18.526Z,7.90
2023-05-19T02:43:23.519Z,7.80
2023-05-19T02:46:25.553Z,8.63
2023-05-19T02:49:27.956Z,8.85
2023-05-19T02:52:29.792Z,8.57
2023-05-19T02:55:31.613Z,7.97
2023-05-19T02:58:33.485Z,7.97
2023-05-19T03:01:35.376Z,7.93
2023-05-19T03:04:41.944Z,7.68
2023-05-19T03:07:43.800Z,7.63
2023-05-19T03:10:48.869Z,7.53
2023-05-19T03:13:50.696Z,8.50
2023-05-19T03:16:53.049Z,7.90
2023-05-19T03:19:55.056Z,11.02
2023-05-19T03:22:57.768Z,7.60
2023-05-19T03:25:59.761Z,6.80
2023-05-19T03:29:01.701Z,6.65
2023-05-19T03:32:03.721Z,7.57
2023-05-19T03:35:05.933Z,6.25
2023-05-19T03:38:07.724Z,11.00
2023-05-19T03:41:09.598Z,8.27
2023-05-19T03:44:11.581Z,8.32
2023-05-19T03:47:13.378Z,6.97
2023-05-19T03:50:15.326Z,7.80
2023-05-19T03:53:17.167Z,7.00
2023-05-19T03:56:19.137Z,7.63
2023-05-19T03:59:21.181Z,7.97
2023-05-19T04:02:23.061Z,8.60
2023-05-19T04:05:24.991Z,7.35
2023-05-19T04:08:26.886Z,8.33
2023-05-19T04:11:28.773Z,7.95
2023-05-19T04:14:30.761Z,6.82
2023-05-19T04:17:32.584Z,7.97
2023-05-19T04:20:34.819Z,6.68
2023-05-19T04:23:36.843Z,6.60
2023-05-19T04:26:42.069Z,7.10
2023-05-19T04:29:46.252Z,6.75
2023-05-19T04:32:51.126Z,6.10
2023-05-19T04:35:53.167Z,6.22
2023-05-19T04:38:55.524Z,6.30
2023-05-19T04:41:57.404Z,6.30
2023-05-19T04:44:59.373Z,9.63
2023-05-19T04:48:02.333Z,6.63
2023-05-19T04:51:04.453Z,6.43
2023-05-19T04:54:06.626Z,6.10
2023-05-19T04:57:08.695Z,7.53
2023-05-19T05:00:14.078Z,6.60
2023-05-19T05:03:16.624Z,6.78
2023-05-19T05:06:18.656Z,6.97
2023-05-19T05:09:20.548Z,6.27
2023-05-19T05:12:22.736Z,5.63
2023-05-19T05:15:25.024Z,6.43
2023-05-19T05:18:27.288Z,6.68
2023-05-19T05:21:29.864Z,5.55
2023-05-19T05:24:32.274Z,5.73
2023-05-19T05:27:34.126Z,6.03
2023-05-19T05:30:36.200Z,4.50
2023-05-19T05:33:38.992Z,5.70
2023-05-19T05:36:41.576Z,6.10
2023-05-19T05:39:43.598Z,5.30
2023-05-19T05:42:45.774Z,5.90
2023-05-19T05:45:47.869Z,5.22
2023-05-19T05:48:50.225Z,5.38
2023-05-19T05:52:05.085Z,5.93
2023-05-19T05:55:12.364Z,7.03
2023-05-19T05:58:15.218Z,5.07
2023-05-19T06:01:18.438Z,5.30
2023-05-19T06:04:21.425Z,5.40
2023-05-19T06:07:24.540Z,5.20
2023-05-19T06:10:26.621Z,5.67
2023-05-19T06:13:28.488Z,4.93
2023-05-19T06:16:30.453Z,4.95
2023-05-19T06:19:32.469Z,5.03
2023-05-19T06:22:34.414Z,4.85
2023-05-19T06:25:36.467Z,4.63
2023-05-19T06:28:38.382Z,5.80
2023-05-19T06:31:40.350Z,5.10
2023-05-19T06:34:42.201Z,4.70
2023-05-19T06:37:44.158Z,6.03
2023-05-19T06:40:46.096Z,5.60
2023-05-19T06:43:48.289Z,4.75
2023-05-19T06:46:50.323Z,5.32
2023-05-19T06:49:55.672Z,4.78
2023-05-19T06:52:58.630Z,7.10
2023-05-19T06:56:00.646Z,4.47
2023-05-19T06:59:02.681Z,4.88
2023-05-19T07:02:04.918Z,4.85
2023-05-19T07:05:08.359Z,4.90
2023-05-19T07:08:10.228Z,5.90
2023-05-19T07:11:12.683Z,4.83
2023-05-19T07:14:14.722Z,5.28
2023-05-19T07:17:16.830Z,4.70
2023-05-19T07:20:18.913Z,6.82
2023-05-19T07:23:20.755Z,5.05
2023-05-19T07:26:22.955Z,4.77
2023-05-19T07:29:24.983Z,4.70
2023-05-19T07:32:27.036Z,5.35
2023-05-19T07:35:29.481Z,5.07
2023-05-19T07:38:34.805Z,5.10
2023-05-19T07:41:36.788Z,5.70
2023-05-19T07:44:38.625Z,5.47
2023-05-19T07:47:40.879Z,5.95
2023-05-19T07:50:43.035Z,5.45
2023-05-19T07:53:45.090Z,5.07
2023-05-19T07:56:48.352Z,6.27
2023-05-19T07:59:50.236Z,5.82
2023-05-19T08:02:53.529Z,6.40
2023-05-19T08:05:55.658Z,4.90
2023-05-19T08:08:57.754Z,6.35
2023-05-19T08:12:01.707Z,5.63
2023-05-19T08:15:03.832Z,6.00
2023-05-19T08:18:05.871Z,6.03
2023-05-19T08:21:07.896Z,5.60
2023-05-19T08:24:09.960Z,8.20
2023-05-19T08:27:12.443Z,5.07
2023-05-19T08:30:14.312Z,6.30
2023-05-19T08:33:16.770Z,6.30
2023-05-19T08:36:19.236Z,5.78
2023-05-19T08:39:26.696Z,5.57
2023-05-19T08:42:28.660Z,5.93
2023-05-19T08:45:31.740Z,6.25
2023-05-19T08:48:34.022Z,6.25
2023-05-19T08:51:48.982Z,6.43
2023-05-19T08:54:54.760Z,6.57
2023-05-19T08:57:56.627Z,5.77
2023-05-19T09:00:58.793Z,5.70
2023-05-19T09:04:01.057Z,5.95
2023-05-19T09:07:04.173Z,6.25
2023-05-19T09:10:07.654Z,6.68
2023-05-19T09:13:09.534Z,5.47
2023-05-19T09:16:12.087Z,6.90
2023-05-19T09:19:16.245Z,7.60
2023-05-19T09:22:19.426Z,7.00
2023-05-19T09:25:23.033Z,7.07
2023-05-19T09:28:28.345Z,5.97
2023-05-19T09:31:32.642Z,6.40
2023-05-19T09:34:37.516Z,7.45
2023-05-19T09:37:41.085Z,7.43
2023-05-19T09:40:42.956Z,6.78
2023-05-19T09:43:45.743Z,6.63
2023-05-19T09:46:51.229Z,5.93
2023-05-19T09:49:53.183Z,5.60
2023-05-19T09:52:55.394Z,5.43
2023-05-19T09:56:00.051Z,6.38
2023-05-19T09:59:03.938Z,6.10
2023-05-19T10:02:06.603Z,5.55
2023-05-19T10:05:10.874Z,6.82
2023-05-19T10:08:12.788Z,6.18
2023-05-19T10:11:14.815Z,5.90
2023-05-19T10:14:16.836Z,5.27
2023-05-19T10:17:18.724Z,6.00
2023-05-19T10:20:21.014Z,6.05
2023-05-19T10:23:23.793Z,5.63
2023-05-19T10:26:26.460Z,6.50
2023-05-19T10:29:29.299Z,5.70
2023-05-19T10:32:32.063Z,5.80
2023-05-19T10:35:45.304Z,5.47
2023-05-19T10:38:53.449Z,5.80
2023-05-19T10:42:30.342Z,5.82
2023-05-19T10:45:34.882Z,5.27
2023-05-19T10:48:37.127Z,5.22
2023-05-19T10:51:43.103Z,6.78
2023-05-19T10:54:47.780Z,5.80
2023-05-19T10:57:58.483Z,7.25
2023-05-19T11:01:03.553Z,5.60
2023-05-19T11:04:07.589Z,6.75
2023-05-19T11:07:10.730Z,5.93
2023-05-19T11:10:13.120Z,5.55
2023-05-19T11:13:22.628Z,6.22
2023-05-19T11:16:29.285Z,6.13
2023-05-19T11:19:32.421Z,5.88
2023-05-19T11:22:36.450Z,8.00
2023-05-19T11:25:49.052Z,6.10
2023-05-19T11:28:51.413Z,7.40
2023-05-19T11:31:53.737Z,7.90
2023-05-19T11:34:56.655Z,7.35
2023-05-19T11:37:58.873Z,6.57
2023-05-19T11:41:01.303Z,7.82
2023-05-19T11:44:03.355Z,8.25
2023-05-19T11:47:06.108Z,7.60
2023-05-19T11:50:09.031Z,8.50
2023-05-19T11:53:14.286Z,7.20
2023-05-19T11:56:16.298Z,7.50
2023-05-19T11:59:18.235Z,6.72
2023-05-19T12:02:21.727Z,8.00
2023-05-19T12:05:27.307Z,6.47
2023-05-19T12:08:29.851Z,9.95
2023-05-19T12:11:32.224Z,6.68
2023-05-19T12:14:34.788Z,7.10
2023-05-19T12:17:37.247Z,6.53
2023-05-19T12:20:39.446Z,7.93
2023-05-19T12:23:41.993Z,7.25
2023-05-19T12:26:44.672Z,8.35
2023-05-19T12:29:57.409Z,8.43
2023-05-19T12:32:59.454Z,7.77
2023-05-19T12:36:01.512Z,7.82
2023-05-19T12:39:05.221Z,8.95
2023-05-19T12:42:11.238Z,9.85
2023-05-19T12:45:13.278Z,10.02
2023-05-19T12:48:18.414Z,8.03
2023-05-19T12:51:20.866Z,9.98
2023-05-19T12:54:23.623Z,8.85
2023-05-19T12:57:26.730Z,9.88
2023-05-19T13:00:31.548Z,8.65
2023-05-19T13:03:33.770Z,9.67
2023-05-19T13:06:35.852Z,13.65
2023-05-19T13:09:38.606Z,9.30
2023-05-19T13:12:41.293Z,7.93
2023-05-19T13:15:44.843Z,9.68
2023-05-19T13:18:46.909Z,8.07
2023-05-19T13:21:49.970Z,11.13
2023-05-19T13:24:53.753Z,9.27
2023-05-19T13:27:56.861Z,9.35
2023-05-19T13:30:59.481Z,8.43
2023-05-19T13:34:01.392Z,8.33
2023-05-19T13:37:03.935Z,7.90
2023-05-19T13:40:06.846Z,10.00
2023-05-19T13:43:09.196Z,8.50
2023-05-19T13:46:11.667Z,7.53
2023-05-19T13:49:13.728Z,7.90
2023-05-19T13:52:15.595Z,7.28
2023-05-19T13:55:17.662Z,8.75
2023-05-19T13:58:19.627Z,8.38
2023-05-19T14:01:21.636Z,8.07
2023-05-19T14:04:26.553Z,7.87
2023-05-19T14:07:28.581Z,10.60
2023-05-19T14:10:30.506Z,8.55
2023-05-19T14:13:36.132Z,9.25
2023-05-19T14:16:41.048Z,11.65
2023-05-19T14:19:43.066Z,9.33
2023-05-19T14:22:45.002Z,8.55
2023-05-19T14:25:51.186Z,8.25
2023-05-19T14:28:53.083Z,8.23
2023-05-19T14:31:55.061Z,8.32
2023-05-19T14:34:57.056Z,10.70
2023-05-19T14:38:01.539Z,8.88
2023-05-19T14:41:03.734Z,8.20
2023-05-19T14:44:06.952Z,8.73
2023-05-19T14:47:08.938Z,9.15
2023-05-19T14:50:10.849Z,7.77
2023-05-19T14:53:12.749Z,8.38
2023-05-19T14:56:14.673Z,9.55
2023-05-19T14:59:16.606Z,7.68
2023-05-19T15:02:18.561Z,9.25
2023-05-19T15:05:20.553Z,9.17
2023-05-19T15:08:23.591Z,9.60
2023-05-19T15:11:26.289Z,7.75
2023-05-19T15:14:30.237Z,8.50
2023-05-19T15:17:33.249Z,6.63
2023-05-19T15:20:35.361Z,7.43
2023-05-19T15:23:37.472Z,7.30
2023-05-19T15:26:42.900Z,6.60
2023-05-19T15:29:44.738Z,8.25
2023-05-19T15:32:46.703Z,7.00
2023-05-19T15:35:51.883Z,7.47
2023-05-19T15:38:53.811Z,7.07
2023-05-19T15:41:59.758Z,7.57
2023-05-19T15:45:01.689Z,8.13
2023-05-19T15:48:03.715Z,7.60
2023-05-19T15:51:05.649Z,7.53
2023-05-19T15:54:07.522Z,7.07
2023-05-19T15:57:12.899Z,7.20
2023-05-19T16:00:15.148Z,7.78
2023-05-19T16:03:17.189Z,6.78
2023-05-19T16:06:19.149Z,6.73
2023-05-19T16:09:21.615Z,6.75
2023-05-19T16:12:24.511Z,8.25
2023-05-19T16:15:26.421Z,8.38
2023-05-19T16:18:29.472Z,7.47
2023-05-19T16:21:32.464Z,7.70
2023-05-19T16:24:34.335Z,7.03
2023-05-19T16:27:39.173Z,8.20
2023-05-19T16:30:41.035Z,7.95
2023-05-19T16:33:43.133Z,8.23
2023-05-19T16:36:45.013Z,8.07
2023-05-19T16:39:48.591Z,7.90
2023-05-19T16:42:52.739Z,6.13
2023-05-19T16:45:54.641Z,8.13
2023-05-19T16:48:56.620Z,8.45
2023-05-19T16:51:58.742Z,8.60
2023-05-19T16:55:00.649Z,7.03
2023-05-19T16:58:06.347Z,6.85
2023-05-19T17:01:09.965Z,7.10
2023-05-19T17:04:12.096Z,9.10
2023-05-19T17:07:17.254Z,7.83
2023-05-19T17:10:19.188Z,7.63
2023-05-19T17:13:21.167Z,8.20
2023-05-19T17:16:23.963Z,7.30
2023-05-19T17:19:26.158Z,8.07
2023-05-19T17:22:30.127Z,7.80
2023-05-19T17:25:33.314Z,7.70
2023-05-19T17:28:38.921Z,7.38
2023-05-19T17:31:40.830Z,8.05
2023-05-19T17:34:42.792Z,9.05
2023-05-19T17:37:44.705Z,9.30
2023-05-19T17:40:46.547Z,9.95
2023-05-19T17:43:48.341Z,8.35
2023-05-19T17:46:50.406Z,7.88
2023-05-19T17:49:53.272Z,8.45
2023-05-19T17:52:56.380Z,8.93
2023-05-19T17:56:00.050Z,8.73
2023-05-19T17:59:05.267Z,9.57
2023-05-19T18:02:08.072Z,7.80
2023-05-19T18:05:10.884Z,8.27
2023-05-19T18:08:13.758Z,8.33
2023-05-19T18:11:16.321Z,9.32
2023-05-19T18:14:18.224Z,9.55
2023-05-19T18:17:20.213Z,8.82
2023-05-19T18:20:22.025Z,8.90
2023-05-19T18:23:24.004Z,8.40
2023-05-19T18:26:26.057Z,8.73
2023-05-19T18:29:28.003Z,8.27
2023-05-19T18:32:29.935Z,8.73
2023-05-19T18:35:31.872Z,8.60
2023-05-19T18:38:33.783Z,9.20
2023-05-19T18:41:37.622Z,9.50
2023-05-19T18:44:39.622Z,9.38
2023-05-19T18:47:41.904Z,9.13
2023-05-19T18:50:44.806Z,10.00
2023-05-19T18:53:49.596Z,11.13
2023-05-19T18:56:51.509Z,8.68
2023-05-19T18:59:56.973Z,8.50
2023-05-19T19:02:59.048Z,10.38
2023-05-19T19:06:01.154Z,10.10
2023-05-19T19:09:03.546Z,10.93
2023-05-19T19:12:05.754Z,10.20
2023-05-19T19:15:07.963Z,9.38
2023-05-19T19:18:09.951Z,10.27
2023-05-19T19:21:11.863Z,9.77
2023-05-19T19:24:13.896Z,11.40
2023-05-19T19:27:17.904Z,11.43
2023-05-19T19:30:23.342Z,11.25
2023-05-19T19:33:25.198Z,10.38
2023-05-19T19:36:27.288Z,10.60
2023-05-19T19:39:29.192Z,10.73
2023-05-19T19:42:31.993Z,10.27
2023-05-19T19:45:34.986Z,12.25
2023-05-19T19:48:37.124Z,10.15
2023-05-19T19:51:38.962Z,13.50
2023-05-19T19:54:40.877Z,15.67
2023-05-19T19:57:45.107Z,13.93
2023-05-19T20:00:47.079Z,16.50
2023-05-19T20:03:49.222Z,14.25
2023-05-19T20:06:51.162Z,13.52
2023-05-19T20:09:53.465Z,10.60
2023-05-19T20:12:55.363Z,11.63
2023-05-19T20:15:58.010Z,11.77
2023-05-19T20:18:59.958Z,12.25
2023-05-19T20:22:01.869Z,13.88
2023-05-19T20:25:03.937Z,13.10
2023-05-19T20:28:05.770Z,14.00
2023-05-19T20:31:11.403Z,14.75
2023-05-19T20:34:13.426Z,15.02
2023-05-19T20:37:15.396Z,15.50
2023-05-19T20:40:17.338Z,17.27
2023-05-19T20:43:19.188Z,19.20
2023-05-19T20:46:21.641Z,18.65
2023-05-19T20:49:23.580Z,22.08
2023-05-19T20:52:25.456Z,21.05
2023-05-19T20:55:27.385Z,20.10
2023-05-19T20:58:30.452Z,20.33
2023-05-19T21:01:35.992Z,22.55
2023-05-19T21:04:38.557Z,19.42
2023-05-19T21:07:40.702Z,20.02
2023-05-19T21:10:42.635Z,18.77
2023-05-19T21:13:44.627Z,19.52
2023-05-19T21:16:50.093Z,17.65
2023-05-19T21:19:56.583Z,18.20
2023-05-19T21:22:59.004Z,15.35
2023-05-19T21:26:01.097Z,16.53
2023-05-19T21:29:02.907Z,15.68
2023-05-19T21:32:05.262Z,18.75
2023-05-19T21:35:07.422Z,15.90
2023-05-19T21:38:22.736Z,14.52
2023-05-19T21:41:25.556Z,16.10
2023-05-19T21:44:27.678Z,15.82
2023-05-19T21:47:29.839Z,19.27
2023-05-19T21:50:31.850Z,19.05
2023-05-19T21:53:33.776Z,18.23
2023-05-19T21:56:35.795Z,22.37
2023-05-19T21:59:37.652Z,30.05
2023-05-19T22:02:44.773Z,37.90
2023-05-19T22:05:50.580Z,45.85
2023-05-19T22:08:55.442Z,46.35
2023-05-19T22:11:57.307Z,44.77
2023-05-19T22:14:59.155Z,39.55
2023-05-19T22:18:01.491Z,40.60
2023-05-19T22:21:03.458Z,40.28
2023-05-19T22:24:05.453Z,32.75
2023-05-19T22:27:07.716Z,33.67
2023-05-19T22:30:09.661Z,33.72
2023-05-19T22:33:11.974Z,31.55
2023-05-19T22:36:16.240Z,31.85
2023-05-19T22:39:18.156Z,30.45
2023-05-19T22:42:20.035Z,29.07
2023-05-19T22:45:22.014Z,28.42
2023-05-19T22:48:24.501Z,21.35
2023-05-19T22:51:26.519Z,23.67
2023-05-19T22:54:28.458Z,21.83
2023-05-19T22:57:31.446Z,22.30
2023-05-19T23:00:33.297Z,24.00
2023-05-19T23:03:38.274Z,19.70
2023-05-19T23:06:40.223Z,22.35
2023-05-19T23:09:42.159Z,22.02
2023-05-19T23:12:44.093Z,20.63
2023-05-19T23:15:46.004Z,19.25
2023-05-19T23:18:51.540Z,19.73
2023-05-19T23:21:53.456Z,18.80
2023-05-19T23:24:55.531Z,20.65
2023-05-19T23:27:57.403Z,20.80
2023-05-19T23:30:59.307Z,18.85
2023-05-19T23:34:03.328Z,19.38
2023-05-19T23:37:05.697Z,19.48
2023-05-19T23:40:08.124Z,19.67
2023-05-19T23:43:10.004Z,20.37
2023-05-19T23:46:11.921Z,18.50
2023-05-19T23:49:18.625Z,19.02
2023-05-19T23:52:20.475Z,17.90
2023-05-19T23:55:23.594Z,19.27
2023-05-19T23:58:25.497Z,17.83
